sensor_id;sensor_type;location;lat;lon;timestamp;pressure;altitude;pressure_sealevel;temperature;humidity
37238;BME280;23129;49.662;8.448;2023-04-08T00:00:56;101145.22;;;9.00;100.00
37238;BME280;23129;49.662;8.448;2023-04-08T00:03:25;101140.84;;;9.02;100.00
37238;BME280;23129;49.662;8.448;2023-04-08T00:05:53;101142.59;;;9.02;100.00
37238;BME280;23129;49.662;8.448;2023-04-08T00:08:22;101143.47;;;9.02;100.00
37238;BME280;23129;49.662;8.448;2023-04-08T00:10:52;101140.00;;;9.00;100.00
37238;BME280;23129;49.662;8.448;2023-04-08T00:13:21;101141.78;;;8.98;100.00
37238;BME280;23129;49.662;8.448;2023-04-08T00:15:50;101145.25;;;8.97;100.00
37238;BME280;23129;49.662;8.448;2023-04-08T00:18:18;101141.81;;;8.95;100.00
37238;BME280;23129;49.662;8.448;2023-04-08T00:20:47;101143.53;;;8.96;100.00
37238;BME280;23129;49.662;8.448;2023-04-08T00:23:16;101150.50;;;8.97;100.00
37238;BME280;23129;49.662;8.448;2023-04-08T00:25:44;101149.63;;;8.97;100.00
37238;BME280;23129;49.662;8.448;2023-04-08T00:28:14;101143.53;;;8.96;100.00
37238;BME280;23129;49.662;8.448;2023-04-08T00:30:43;101148.75;;;8.96;100.00
37238;BME280;23129;49.662;8.448;2023-04-08T00:33:12;101148.75;;;8.96;100.00
37238;BME280;23129;49.662;8.448;2023-04-08T00:35:40;101151.38;;;8.96;100.00
37238;BME280;23129;49.662;8.448;2023-04-08T00:38:09;101156.66;;;8.95;100.00
37238;BME280;23129;49.662;8.448;2023-04-08T00:40:38;101159.28;;;8.91;100.00
37238;BME280;23129;49.662;8.448;2023-04-08T00:43:07;101151.44;;;8.91;100.00
37238;BME280;23129;49.662;8.448;2023-04-08T00:45:37;101156.69;;;8.91;100.00
37238;BME280;23129;49.662;8.448;2023-04-08T00:48:05;101152.31;;;8.92;100.00
37238;BME280;23129;49.662;8.448;2023-04-08T00:50:34;101149.69;;;8.90;100.00
37238;BME280;23129;49.662;8.448;2023-04-08T00:53:02;101148.81;;;8.90;100.00
37238;BME280;23129;49.662;8.448;2023-04-08T00:55:31;101153.19;;;8.89;100.00
37238;BME280;23129;49.662;8.448;2023-04-08T00:58:00;101153.19;;;8.89;100.00
37238;BME280;23129;49.662;8.448;2023-04-08T01:00:29;101148.81;;;8.90;100.00
37238;BME280;23129;49.662;8.448;2023-04-08T01:03:06;101147.97;;;8.88;100.00
37238;BME280;23129;49.662;8.448;2023-04-08T01:05:44;101153.19;;;8.88;100.00
37238;BME280;23129;49.662;8.448;2023-04-08T01:08:17;101156.69;;;8.87;100.00
37238;BME280;23129;49.662;8.448;2023-04-08T01:10:48;101148.00;;;8.86;100.00
37238;BME280;23129;49.662;8.448;2023-04-08T01:13:19;101152.38;;;8.86;100.00
37238;BME280;23129;49.662;8.448;2023-04-08T01:15:49;101157.59;;;8.86;100.00
37238;BME280;23129;49.662;8.448;2023-04-08T01:18:21;101154.97;;;8.84;100.00
37238;BME280;23129;49.662;8.448;2023-04-08T01:20:52;101156.69;;;8.85;100.00
37238;BME280;23129;49.662;8.448;2023-04-08T01:23:28;101157.59;;;8.86;100.00
37238;BME280;23129;49.662;8.448;2023-04-08T01:26:00;101151.47;;;8.85;100.00
37238;BME280;23129;49.662;8.448;2023-04-08T01:28:30;101152.38;;;8.86;100.00
37238;BME280;23129;49.662;8.448;2023-04-08T01:31:00;101154.13;;;8.84;100.00
37238;BME280;23129;49.662;8.448;2023-04-08T01:33:30;101155.88;;;8.83;100.00
37238;BME280;23129;49.662;8.448;2023-04-08T01:35:59;101156.69;;;8.85;100.00
37238;BME280;23129;49.662;8.448;2023-04-08T01:38:29;101152.38;;;8.84;100.00
37238;BME280;23129;49.662;8.448;2023-04-08T01:41:00;101158.47;;;8.83;100.00
37238;BME280;23129;49.662;8.448;2023-04-08T01:43:30;101150.63;;;8.82;100.00
37238;BME280;23129;49.662;8.448;2023-04-08T01:46:02;101155.84;;;8.85;100.00
37238;BME280;23129;49.662;8.448;2023-04-08T01:48:33;101151.47;;;8.85;100.00
37238;BME280;23129;49.662;8.448;2023-04-08T01:51:04;101150.59;;;8.85;100.00
37238;BME280;23129;49.662;8.448;2023-04-08T01:53:35;101143.66;;;8.84;100.00
37238;BME280;23129;49.662;8.448;2023-04-08T01:56:08;101145.41;;;8.82;100.00
37238;BME280;23129;49.662;8.448;2023-04-08T01:58:42;101146.25;;;8.82;100.00
37238;BME280;23129;49.662;8.448;2023-04-08T02:01:17;101150.63;;;8.82;100.00
37238;BME280;23129;49.662;8.448;2023-04-08T02:03:50;101147.19;;;8.80;100.00
37238;BME280;23129;49.662;8.448;2023-04-08T02:06:24;101149.81;;;8.80;100.00
37238;BME280;23129;49.662;8.448;2023-04-08T02:08:54;101149.81;;;8.78;100.00
37238;BME280;23129;49.662;8.448;2023-04-08T02:11:24;101153.31;;;8.77;100.00
37238;BME280;23129;49.662;8.448;2023-04-08T02:13:52;101156.78;;;8.76;100.00
37238;BME280;23129;49.662;8.448;2023-04-08T02:16:25;101156.78;;;8.76;100.00
37238;BME280;23129;49.662;8.448;2023-04-08T02:18:59;101158.56;;;8.74;100.00
37238;BME280;23129;49.662;8.448;2023-04-08T02:21:47;101159.47;;;8.72;100.00
37238;BME280;23129;49.662;8.448;2023-04-08T02:24:18;101163.81;;;8.73;100.00
37238;BME280;23129;49.662;8.448;2023-04-08T02:26:50;101161.19;;;8.73;100.00
37238;BME280;23129;49.662;8.448;2023-04-08T02:29:20;101159.47;;;8.72;100.00
37238;BME280;23129;49.662;8.448;2023-04-08T02:31:52;101162.06;;;8.72;100.00
37238;BME280;23129;49.662;8.448;2023-04-08T02:34:22;101165.59;;;8.71;100.00
37238;BME280;23129;49.662;8.448;2023-04-08T02:36:51;101156.84;;;8.70;100.00
37238;BME280;23129;49.662;8.448;2023-04-08T02:39:21;101161.22;;;8.69;100.00
37238;BME280;23129;49.662;8.448;2023-04-08T02:41:58;101161.22;;;8.69;100.00
37238;BME280;23129;49.662;8.448;2023-04-08T02:44:27;101159.50;;;8.68;100.00
37238;BME280;23129;49.662;8.448;2023-04-08T02:46:58;101159.50;;;8.68;100.00
37238;BME280;23129;49.662;8.448;2023-04-08T02:49:27;101163.00;;;8.67;100.00
37238;BME280;23129;49.662;8.448;2023-04-08T02:51:56;101161.25;;;8.66;100.00
37238;BME280;23129;49.662;8.448;2023-04-08T02:54:25;101160.38;;;8.66;100.00
37238;BME280;23129;49.662;8.448;2023-04-08T02:56:54;101156.00;;;8.66;100.00
37238;BME280;23129;49.662;8.448;2023-04-08T02:59:23;101159.47;;;8.67;100.00
37238;BME280;23129;49.662;8.448;2023-04-08T03:01:52;101154.28;;;8.65;100.00
37238;BME280;23129;49.662;8.448;2023-04-08T03:04:20;101164.75;;;8.65;100.00
37238;BME280;23129;49.662;8.448;2023-04-08T03:06:49;101160.38;;;8.64;100.00
37238;BME280;23129;49.662;8.448;2023-04-08T03:09:18;101163.00;;;8.64;100.00
37238;BME280;23129;49.662;8.448;2023-04-08T03:11:47;101160.38;;;8.64;100.00
37238;BME280;23129;49.662;8.448;2023-04-08T03:14:20;101163.00;;;8.64;100.00
37238;BME280;23129;49.662;8.448;2023-04-08T03:16:50;101170.84;;;8.64;100.00
37238;BME280;23129;49.662;8.448;2023-04-08T03:19:19;101161.25;;;8.63;100.00
37238;BME280;23129;49.662;8.448;2023-04-08T03:21:48;101164.78;;;8.62;100.00
37238;BME280;23129;49.662;8.448;2023-04-08T03:24:16;101167.38;;;8.62;100.00
37238;BME280;23129;49.662;8.448;2023-04-08T03:26:45;101170.00;;;8.62;100.00
37238;BME280;23129;49.662;8.448;2023-04-08T03:29:14;101172.63;;;8.61;100.00
37238;BME280;23129;49.662;8.448;2023-04-08T03:31:42;101171.75;;;8.60;100.00
37238;BME280;23129;49.662;8.448;2023-04-08T03:34:12;101175.25;;;8.59;100.00
37238;BME280;23129;49.662;8.448;2023-04-08T03:36:41;101177.00;;;8.57;100.00
37238;BME280;23129;49.662;8.448;2023-04-08T03:39:09;101183.13;;;8.56;100.00
37238;BME280;23129;49.662;8.448;2023-04-08T03:41:38;101177.03;;;8.56;100.00
37238;BME280;23129;49.662;8.448;2023-04-08T03:44:07;101179.66;;;8.54;100.00
37238;BME280;23129;49.662;8.448;2023-04-08T03:46:35;101184.00;;;8.52;100.00
37238;BME280;23129;49.662;8.448;2023-04-08T03:49:04;101183.19;;;8.50;100.00
37238;BME280;23129;49.662;8.448;2023-04-08T03:51:34;101187.53;;;8.48;100.00
37238;BME280;23129;49.662;8.448;2023-04-08T03:54:03;101183.16;;;8.49;100.00
37238;BME280;23129;49.662;8.448;2023-04-08T03:56:32;101181.44;;;8.46;100.00
37238;BME280;23129;49.662;8.448;2023-04-08T03:59:00;101183.22;;;8.44;100.00
37238;BME280;23129;49.662;8.448;2023-04-08T04:01:29;101180.59;;;8.42;100.00
37238;BME280;23129;49.662;8.448;2023-04-08T04:03:58;101191.09;;;8.41;100.00
37238;BME280;23129;49.662;8.448;2023-04-08T04:06:27;101183.25;;;8.39;100.00
37238;BME280;23129;49.662;8.448;2023-04-08T04:08:57;101189.31;;;8.37;100.00
37238;BME280;23129;49.662;8.448;2023-04-08T04:11:25;101191.97;;;8.35;100.00
37238;BME280;23129;49.662;8.448;2023-04-08T04:13:54;101194.56;;;8.34;100.00
37238;BME280;23129;49.662;8.448;2023-04-08T04:16:23;101194.59;;;8.31;100.00
37238;BME280;23129;49.662;8.448;2023-04-08T04:18:52;101192.00;;;8.29;100.00
37238;BME280;23129;49.662;8.448;2023-04-08T04:21:21;101199.84;;;8.28;100.00
37238;BME280;23129;49.662;8.448;2023-04-08T04:23:49;101192.88;;;8.27;100.00
37238;BME280;23129;49.662;8.448;2023-04-08T04:26:19;101195.50;;;8.23;100.00
37238;BME280;23129;49.662;8.448;2023-04-08T04:28:47;101199.88;;;8.21;100.00
37238;BME280;23129;49.662;8.448;2023-04-08T04:31:20;101203.38;;;8.19;100.00
37238;BME280;23129;49.662;8.448;2023-04-08T04:33:49;101207.75;;;8.17;100.00
37238;BME280;23129;49.662;8.448;2023-04-08T04:36:18;101202.53;;;8.15;100.00
37238;BME280;23129;49.662;8.448;2023-04-08T04:38:48;101204.25;;;8.13;100.00
37238;BME280;23129;49.662;8.448;2023-04-08T04:41:18;101206.03;;;8.11;100.00
37238;BME280;23129;49.662;8.448;2023-04-08T04:43:48;101209.50;;;8.10;100.00
37238;BME280;23129;49.662;8.448;2023-04-08T04:46:16;101205.16;;;8.09;100.00
37238;BME280;23129;49.662;8.448;2023-04-08T04:48:45;101211.28;;;8.08;100.00
37238;BME280;23129;49.662;8.448;2023-04-08T04:51:14;101217.38;;;8.07;100.00
37238;BME280;23129;49.662;8.448;2023-04-08T04:53:43;101210.41;;;8.06;100.00
37238;BME280;23129;49.662;8.448;2023-04-08T04:56:11;101210.41;;;8.06;100.00
37238;BME280;23129;49.662;8.448;2023-04-08T04:58:41;101220.00;;;8.06;100.00
37238;BME280;23129;49.662;8.448;2023-04-08T05:01:10;101226.09;;;8.06;100.00
37238;BME280;23129;49.662;8.448;2023-04-08T05:03:38;101227.81;;;8.07;100.00
37238;BME280;23129;49.662;8.448;2023-04-08T05:06:07;101223.47;;;8.08;100.00
37238;BME280;23129;49.662;8.448;2023-04-08T05:08:36;101226.94;;;8.07;100.00
37238;BME280;23129;49.662;8.448;2023-04-08T05:11:08;101222.59;;;8.07;100.00
37238;BME280;23129;49.662;8.448;2023-04-08T05:13:37;101227.81;;;8.07;100.00
37238;BME280;23129;49.662;8.448;2023-04-08T05:16:07;101228.69;;;8.06;100.00
37238;BME280;23129;49.662;8.448;2023-04-08T05:18:36;101240.03;;;8.05;100.00
37238;BME280;23129;49.662;8.448;2023-04-08T05:21:05;101237.44;;;8.00;100.00
37238;BME280;23129;49.662;8.448;2023-04-08T05:23:34;101238.31;;;7.98;100.00
37238;BME280;23129;49.662;8.448;2023-04-08T05:26:05;101234.88;;;7.93;100.00
37238;BME280;23129;49.662;8.448;2023-04-08T05:28:34;101238.38;;;7.86;100.00
37238;BME280;23129;49.662;8.448;2023-04-08T05:31:03;101245.34;;;7.81;100.00
37238;BME280;23129;49.662;8.448;2023-04-08T05:33:32;101245.34;;;7.74;100.00
37238;BME280;23129;49.662;8.448;2023-04-08T05:36:01;101247.13;;;7.69;100.00
37238;BME280;23129;49.662;8.448;2023-04-08T05:38:30;101253.25;;;7.64;100.00
37238;BME280;23129;49.662;8.448;2023-04-08T05:40:58;101257.63;;;7.60;100.00
37238;BME280;23129;49.662;8.448;2023-04-08T05:43:27;101251.50;;;7.53;100.00
37238;BME280;23129;49.662;8.448;2023-04-08T05:45:56;101261.09;;;7.50;100.00
37238;BME280;23129;49.662;8.448;2023-04-08T05:48:24;101259.38;;;7.46;100.00
37238;BME280;23129;49.662;8.448;2023-04-08T05:50:54;101259.38;;;7.40;100.00
37238;BME280;23129;49.662;8.448;2023-04-08T05:53:23;101269.84;;;7.37;100.00
37238;BME280;23129;49.662;8.448;2023-04-08T05:55:52;101265.47;;;7.32;100.00
37238;BME280;23129;49.662;8.448;2023-04-08T05:58:21;101266.34;;;7.28;100.00
37238;BME280;23129;49.662;8.448;2023-04-08T06:00:50;101270.69;;;7.29;100.00
37238;BME280;23129;49.662;8.448;2023-04-08T06:03:18;101268.97;;;7.31;100.00
37238;BME280;23129;49.662;8.448;2023-04-08T06:05:47;101272.44;;;7.29;100.00
37238;BME280;23129;49.662;8.448;2023-04-08T06:08:16;101276.78;;;7.28;100.00
37238;BME280;23129;49.662;8.448;2023-04-08T06:10:48;101279.41;;;7.28;100.00
37238;BME280;23129;49.662;8.448;2023-04-08T06:13:17;101285.50;;;7.30;100.00
37238;BME280;23129;49.662;8.448;2023-04-08T06:15:47;101287.22;;;7.31;100.00
37238;BME280;23129;49.662;8.448;2023-04-08T06:18:16;101287.22;;;7.28;100.00
37238;BME280;23129;49.662;8.448;2023-04-08T06:20:45;101302.03;;;7.28;100.00
37238;BME280;23129;49.662;8.448;2023-04-08T06:23:13;101301.16;;;7.24;100.00
37238;BME280;23129;49.662;8.448;2023-04-08T06:25:43;101300.25;;;7.24;100.00
37238;BME280;23129;49.662;8.448;2023-04-08T06:28:12;101300.25;;;7.24;100.00
37238;BME280;23129;49.662;8.448;2023-04-08T06:30:41;101307.22;;;7.26;100.00
37238;BME280;23129;49.662;8.448;2023-04-08T06:33:09;101299.41;;;7.29;100.00
37238;BME280;23129;49.662;8.448;2023-04-08T06:35:38;101312.47;;;7.34;100.00
37238;BME280;23129;49.662;8.448;2023-04-08T06:38:06;101309.81;;;7.39;100.00
37238;BME280;23129;49.662;8.448;2023-04-08T06:40:37;101309.84;;;7.43;100.00
37238;BME280;23129;49.662;8.448;2023-04-08T06:43:08;101313.31;;;7.47;100.00
37238;BME280;23129;49.662;8.448;2023-04-08T06:45:39;101310.69;;;7.47;100.00
37238;BME280;23129;49.662;8.448;2023-04-08T06:48:08;101316.78;;;7.49;100.00
37238;BME280;23129;49.662;8.448;2023-04-08T06:50:38;101315.91;;;7.53;100.00
37238;BME280;23129;49.662;8.448;2023-04-08T06:53:07;101311.56;;;7.61;100.00
37238;BME280;23129;49.662;8.448;2023-04-08T06:55:35;101312.44;;;7.66;100.00
37238;BME280;23129;49.662;8.448;2023-04-08T06:58:04;101312.41;;;7.71;100.00
37238;BME280;23129;49.662;8.448;2023-04-08T07:00:34;101320.22;;;7.77;100.00
37238;BME280;23129;49.662;8.448;2023-04-08T07:03:03;101317.56;;;7.92;100.00
37238;BME280;23129;49.662;8.448;2023-04-08T07:05:34;101318.41;;;8.11;100.00
37238;BME280;23129;49.662;8.448;2023-04-08T07:08:03;101323.53;;;8.33;100.00
37238;BME280;23129;49.662;8.448;2023-04-08T07:10:32;101319.97;;;8.52;100.00
37238;BME280;23129;49.662;8.448;2023-04-08T07:13:01;101326.88;;;8.68;100.00
37238;BME280;23129;49.662;8.448;2023-04-08T07:15:30;101326.81;;;8.78;100.00
37238;BME280;23129;49.662;8.448;2023-04-08T07:18:00;101329.41;;;8.79;100.00
37238;BME280;23129;49.662;8.448;2023-04-08T07:20:29;101325.94;;;8.76;100.00
37238;BME280;23129;49.662;8.448;2023-04-08T07:22:58;101327.72;;;8.69;100.00
37238;BME280;23129;49.662;8.448;2023-04-08T07:25:27;101339.09;;;8.63;100.00
37238;BME280;23129;49.662;8.448;2023-04-08T07:27:55;101346.03;;;8.64;100.00
37238;BME280;23129;49.662;8.448;2023-04-08T07:30:24;101350.41;;;8.67;100.00
37238;BME280;23129;49.662;8.448;2023-04-08T07:32:52;101345.16;;;8.70;100.00
37238;BME280;23129;49.662;8.448;2023-04-08T07:35:25;101349.47;;;8.76;100.00
37238;BME280;23129;49.662;8.448;2023-04-08T07:37:55;101349.44;;;8.83;100.00
37238;BME280;23129;49.662;8.448;2023-04-08T07:40:24;101353.75;;;8.92;100.00
37238;BME280;23129;49.662;8.448;2023-04-08T07:42:54;101365.03;;;9.00;100.00
37238;BME280;23129;49.662;8.448;2023-04-08T07:45:23;101361.47;;;9.10;100.00
37238;BME280;23129;49.662;8.448;2023-04-08T07:47:53;101370.13;;;9.20;100.00
37238;BME280;23129;49.662;8.448;2023-04-08T07:50:24;101356.09;;;9.29;100.00
37238;BME280;23129;49.662;8.448;2023-04-08T07:52:53;101362.16;;;9.35;100.00
37238;BME280;23129;49.662;8.448;2023-04-08T07:55:22;101362.97;;;9.42;100.00
37238;BME280;23129;49.662;8.448;2023-04-08T07:57:50;101364.66;;;9.52;100.00
37238;BME280;23129;49.662;8.448;2023-04-08T08:00:19;101363.56;;;9.73;100.00
37238;BME280;23129;49.662;8.448;2023-04-08T08:02:48;101360.78;;;9.93;100.00
37238;BME280;23129;49.662;8.448;2023-04-08T08:05:17;101367.56;;;10.10;100.00
37238;BME280;23129;49.662;8.448;2023-04-08T08:07:47;101369.16;;;10.23;100.00
37238;BME280;23129;49.662;8.448;2023-04-08T08:10:16;101370.88;;;10.30;100.00
37238;BME280;23129;49.662;8.448;2023-04-08T08:12:45;101375.19;;;10.36;100.00
37238;BME280;23129;49.662;8.448;2023-04-08T08:15:14;101369.94;;;10.36;100.00
37238;BME280;23129;49.662;8.448;2023-04-08T08:17:43;101379.56;;;10.35;100.00
37238;BME280;23129;49.662;8.448;2023-04-08T08:20:11;101371.69;;;10.34;100.00
37238;BME280;23129;49.662;8.448;2023-04-08T08:22:40;101373.41;;;10.36;100.00
37238;BME280;23129;49.662;8.448;2023-04-08T08:25:24;101369.06;;;10.35;100.00
37238;BME280;23129;49.662;8.448;2023-04-08T08:27:53;101375.16;;;10.37;100.00
37238;BME280;23129;49.662;8.448;2023-04-08T08:30:22;101371.59;;;10.43;100.00
37238;BME280;23129;49.662;8.448;2023-04-08T08:32:52;101370.59;;;10.53;100.00
37238;BME280;23129;49.662;8.448;2023-04-08T08:35:21;101376.56;;;10.64;100.00
37238;BME280;23129;49.662;8.448;2023-04-08T08:37:49;101368.25;;;10.96;100.00
37238;BME280;23129;49.662;8.448;2023-04-08T08:40:18;101371.00;;;11.45;100.00
37238;BME280;23129;49.662;8.448;2023-04-08T08:42:51;101372.81;;;11.92;100.00
37238;BME280;23129;49.662;8.448;2023-04-08T08:45:20;101372.34;;;12.18;100.00
37238;BME280;23129;49.662;8.448;2023-04-08T08:47:49;101374.78;;;12.27;100.00
37238;BME280;23129;49.662;8.448;2023-04-08T08:50:18;101372.69;;;12.45;100.00
37238;BME280;23129;49.662;8.448;2023-04-08T08:52:50;101375.06;;;12.57;100.00
37238;BME280;23129;49.662;8.448;2023-04-08T08:55:20;101382.72;;;12.68;100.00
37238;BME280;23129;49.662;8.448;2023-04-08T08:58:10;101389.41;;;12.83;100.00
37238;BME280;23129;49.662;8.448;2023-04-08T09:00:40;101380.56;;;12.87;100.00
37238;BME280;23129;49.662;8.448;2023-04-08T09:03:19;101392.97;;;12.80;100.00
37238;BME280;23129;49.662;8.448;2023-04-08T09:05:50;101391.19;;;12.82;100.00
37238;BME280;23129;49.662;8.448;2023-04-08T09:08:28;101396.50;;;12.81;100.00
37238;BME280;23129;49.662;8.448;2023-04-08T09:11:12;101395.53;;;12.83;100.00
37238;BME280;23129;49.662;8.448;2023-04-08T09:13:42;101396.97;;;12.98;100.00
37238;BME280;23129;49.662;8.448;2023-04-08T09:16:13;101397.81;;;13.00;100.00
37238;BME280;23129;49.662;8.448;2023-04-08T09:18:45;101397.66;;;13.06;100.00
37238;BME280;23129;49.662;8.448;2023-04-08T09:21:16;101391.97;;;13.24;100.00
37238;BME280;23129;49.662;8.448;2023-04-08T09:23:47;101399.47;;;13.43;100.00
37238;BME280;23129;49.662;8.448;2023-04-08T09:26:18;101394.88;;;13.51;100.00
37238;BME280;23129;49.662;8.448;2023-04-08T09:28:59;101389.53;;;13.54;100.00
37238;BME280;23129;49.662;8.448;2023-04-08T09:31:41;101388.03;;;13.44;100.00
37238;BME280;23129;49.662;8.448;2023-04-08T09:34:11;101397.13;;;13.31;100.00
37238;BME280;23129;49.662;8.448;2023-04-08T09:36:40;101398.97;;;13.27;100.00
37238;BME280;23129;49.662;8.448;2023-04-08T09:39:10;101400.75;;;13.27;100.00
37238;BME280;23129;49.662;8.448;2023-04-08T09:41:41;101402.50;;;13.24;100.00
37238;BME280;23129;49.662;8.448;2023-04-08T09:44:11;101405.09;;;13.28;100.00
37238;BME280;23129;49.662;8.448;2023-04-08T09:46:55;101411.22;;;13.30;100.00
37238;BME280;23129;49.662;8.448;2023-04-08T09:49:26;101411.31;;;13.25;100.00
37238;BME280;23129;49.662;8.448;2023-04-08T09:52:03;101408.91;;;13.13;100.00
37238;BME280;23129;49.662;8.448;2023-04-08T09:54:46;101410.69;;;13.12;100.00
37238;BME280;23129;49.662;8.448;2023-04-08T09:57:21;101407.13;;;13.15;100.00
37238;BME280;23129;49.662;8.448;2023-04-08T10:00:02;101412.47;;;13.12;100.00
37238;BME280;23129;49.662;8.448;2023-04-08T10:02:48;101409.75;;;13.16;100.00
37238;BME280;23129;49.662;8.448;2023-04-08T10:05:19;101408.13;;;13.09;100.00
37238;BME280;23129;49.662;8.448;2023-04-08T10:07:48;101404.66;;;13.07;100.00
37238;BME280;23129;49.662;8.448;2023-04-08T10:10:18;101407.50;;;12.98;100.00
37238;BME280;23129;49.662;8.448;2023-04-08T10:12:47;101409.47;;;12.88;100.00
37238;BME280;23129;49.662;8.448;2023-04-08T10:15:25;101408.81;;;12.78;100.00
37238;BME280;23129;49.662;8.448;2023-04-08T10:17:55;101410.81;;;12.67;100.00
37238;BME280;23129;49.662;8.448;2023-04-08T10:20:41;101409.22;;;12.59;100.00
37238;BME280;23129;49.662;8.448;2023-04-08T10:23:11;101416.44;;;12.49;100.00
37238;BME280;23129;49.662;8.448;2023-04-08T10:25:41;101411.19;;;12.49;100.00
37238;BME280;23129;49.662;8.448;2023-04-08T10:28:24;101405.84;;;12.52;100.00
37238;BME280;23129;49.662;8.448;2023-04-08T10:30:55;101413.94;;;12.43;100.00
37238;BME280;23129;49.662;8.448;2023-04-08T10:33:32;101418.34;;;12.41;100.00
37238;BME280;23129;49.662;8.448;2023-04-08T10:36:09;101418.41;;;12.38;100.00
37238;BME280;23129;49.662;8.448;2023-04-08T10:38:39;101418.28;;;12.44;100.00
37238;BME280;23129;49.662;8.448;2023-04-08T10:41:09;101419.16;;;12.46;100.00
37238;BME280;23129;49.662;8.448;2023-04-08T10:43:40;101426.06;;;12.50;100.00
37238;BME280;23129;49.662;8.448;2023-04-08T10:46:11;101411.13;;;12.52;100.00
37238;BME280;23129;49.662;8.448;2023-04-08T10:48:39;101407.41;;;12.62;100.00
37238;BME280;23129;49.662;8.448;2023-04-08T10:51:08;101409.75;;;12.76;100.00
37238;BME280;23129;49.662;8.448;2023-04-08T10:53:38;101408.75;;;12.82;100.00
37238;BME280;23129;49.662;8.448;2023-04-08T10:56:07;101411.50;;;12.75;100.00
37238;BME280;23129;49.662;8.448;2023-04-08T10:58:47;101409.75;;;12.76;100.00
37238;BME280;23129;49.662;8.448;2023-04-08T11:01:18;101408.03;;;12.73;100.00
37238;BME280;23129;49.662;8.448;2023-04-08T11:03:48;101407.88;;;12.81;100.00
37238;BME280;23129;49.662;8.448;2023-04-08T11:06:17;101407.69;;;12.90;100.00
37238;BME280;23129;49.662;8.448;2023-04-08T11:08:45;101400.50;;;12.98;100.00
37238;BME280;23129;49.662;8.448;2023-04-08T11:11:14;101407.34;;;13.04;100.00
37238;BME280;23129;49.662;8.448;2023-04-08T11:13:45;101401.03;;;13.13;100.00
37238;BME280;23129;49.662;8.448;2023-04-08T11:16:21;101406.19;;;13.17;100.00
37238;BME280;23129;49.662;8.448;2023-04-08T11:18:52;101398.16;;;13.22;100.00
37238;BME280;23129;49.662;8.448;2023-04-08T11:21:23;101397.78;;;13.40;100.00
37238;BME280;23129;49.662;8.448;2023-04-08T11:23:55;101400.75;;;13.62;100.00
37238;BME280;23129;49.662;8.448;2023-04-08T11:26:25;101400.41;;;13.76;100.00
37238;BME280;23129;49.662;8.448;2023-04-08T11:28:55;101390.56;;;13.83;100.00
37238;BME280;23129;49.662;8.448;2023-04-08T11:31:26;101400.53;;;13.72;100.00
37238;BME280;23129;49.662;8.448;2023-04-08T11:33:55;101398.72;;;13.74;100.00
37238;BME280;23129;49.662;8.448;2023-04-08T11:36:24;101394.09;;;13.82;100.00
37238;BME280;23129;49.662;8.448;2023-04-08T11:38:54;101391.00;;;14.00;100.00
37238;BME280;23129;49.662;8.448;2023-04-08T11:41:22;101396.47;;;14.24;100.00
37238;BME280;23129;49.662;8.448;2023-04-08T11:43:56;101390.81;;;14.39;100.00
37238;BME280;23129;49.662;8.448;2023-04-08T11:46:25;101386.97;;;14.49;100.00
37238;BME280;23129;49.662;8.448;2023-04-08T11:48:59;101392.00;;;14.58;100.00
37238;BME280;23129;49.662;8.448;2023-04-08T11:51:28;101390.22;;;14.60;100.00
37238;BME280;23129;49.662;8.448;2023-04-08T11:53:56;101383.16;;;14.59;100.00
37238;BME280;23129;49.662;8.448;2023-04-08T11:56:25;101369.69;;;14.69;100.00
37238;BME280;23129;49.662;8.448;2023-04-08T11:58:56;101371.63;;;14.92;100.00
37238;BME280;23129;49.662;8.448;2023-04-08T12:01:26;101368.09;;;15.21;100.00
37238;BME280;23129;49.662;8.448;2023-04-08T12:03:59;101369.88;;;15.47;100.00
37238;BME280;23129;49.662;8.448;2023-04-08T12:06:29;101360.94;;;15.78;100.00
37238;BME280;23129;49.662;8.448;2023-04-08T12:08:57;101362.56;;;16.07;100.00
37238;BME280;23129;49.662;8.448;2023-04-08T12:11:26;101362.13;;;15.94;100.00
37238;BME280;23129;49.662;8.448;2023-04-08T12:13:55;101361.03;;;16.00;100.00
37238;BME280;23129;49.662;8.448;2023-04-08T12:16:24;101359.84;;;16.33;100.00
37238;BME280;23129;49.662;8.448;2023-04-08T12:18:53;101359.94;;;16.77;100.00
37238;BME280;23129;49.662;8.448;2023-04-08T12:21:22;101365.06;;;17.04;100.00
37238;BME280;23129;49.662;8.448;2023-04-08T12:23:50;101363.59;;;17.19;100.00
37238;BME280;23129;49.662;8.448;2023-04-08T12:26:20;101366.63;;;17.09;100.00
37238;BME280;23129;49.662;8.448;2023-04-08T12:28:48;101361.84;;;16.96;100.00
37238;BME280;23129;49.662;8.448;2023-04-08T12:31:16;101368.50;;;16.84;100.00
37238;BME280;23129;49.662;8.448;2023-04-08T12:33:45;101362.44;;;16.57;100.00
37238;BME280;23129;49.662;8.448;2023-04-08T12:36:15;101357.25;;;16.30;100.00
37238;BME280;23129;49.662;8.448;2023-04-08T12:38:45;101359.69;;;16.13;100.00
37238;BME280;23129;49.662;8.448;2023-04-08T12:41:14;101348.88;;;16.42;100.00
37238;BME280;23129;49.662;8.448;2023-04-08T12:43:43;101352.44;;;16.88;100.00
37238;BME280;23129;49.662;8.448;2023-04-08T12:46:11;101360.84;;;17.00;100.00
37238;BME280;23129;49.662;8.448;2023-04-08T12:48:40;101348.59;;;17.40;100.00
37238;BME280;23129;49.662;8.448;2023-04-08T12:51:11;101351.44;;;17.77;100.00
37238;BME280;23129;49.662;8.448;2023-04-08T12:53:41;101353.34;;;17.74;100.00
37238;BME280;23129;49.662;8.448;2023-04-08T12:56:09;101352.84;;;17.64;100.00
37238;BME280;23129;49.662;8.448;2023-04-08T12:58:38;101352.78;;;17.45;100.00
37238;BME280;23129;49.662;8.448;2023-04-08T13:01:06;101354.53;;;17.24;100.00